Time;durP1;ratioP1;P1;durP2;ratioP2;P2;SDS_P1;SDS_P2;PMS_P1;PMS_P2;Temp;Humidity;BMP_temperature;BMP_pressure;BME280_temperature;BME280_humidity;BME280_pressure;Samples;Min_cycle;Max_cycle;Signal;HPM_P1;HPM_P2
2023/09/09 00:02:10;;;;;;;16.40;14.00;;;22.80;99.90;;;;;;5077449;28;20031;-74
2023/09/09 00:04:36;;;;;;;16.30;13.45;;;22.80;99.90;;;;;;5079365;28;20034;-75
2023/09/09 00:07:02;;;;;;;14.98;13.38;;;22.70;99.90;;;;;;5069397;28;20487;-74
2023/09/09 00:09:29;;;;;;;18.25;13.00;;;22.70;99.90;;;;;;5079604;28;20036;-75
2023/09/09 00:11:55;;;;;;;14.60;13.07;;;22.70;99.90;;;;;;5076492;28;20473;-75
2023/09/09 00:14:21;;;;;;;15.50;13.77;;;22.70;99.90;;;;;;5071296;28;20041;-75
2023/09/09 00:16:46;;;;;;;16.42;14.57;;;22.60;99.90;;;;;;5078000;28;20035;-74
2023/09/09 00:19:12;;;;;;;18.55;14.75;;;22.60;99.90;;;;;;5071086;28;20444;-74
2023/09/09 00:21:38;;;;;;;16.73;15.02;;;22.60;99.90;;;;;;5081379;28;20358;-74
2023/09/09 00:24:04;;;;;;;16.15;14.70;;;22.60;99.90;;;;;;5067909;28;20417;-74
2023/09/09 00:26:31;;;;;;;18.98;15.32;;;22.50;99.90;;;;;;5074516;28;20043;-74
2023/09/09 00:29:00;;;;;;;15.75;14.25;;;22.50;99.90;;;;;;5075727;28;20038;-75
2023/09/09 00:31:25;;;;;;;19.92;16.33;;;22.50;99.90;;;;;;5074813;28;20021;-74
2023/09/09 00:33:53;;;;;;;17.92;15.73;;;22.50;99.90;;;;;;5077549;28;20032;-75
2023/09/09 00:36:18;;;;;;;17.52;15.70;;;22.40;99.90;;;;;;5073567;28;20063;-75
2023/09/09 00:38:44;;;;;;;18.75;16.77;;;22.40;99.90;;;;;;5068697;28;20336;-74
2023/09/09 00:41:27;;;;;;;20.67;16.27;;;22.40;99.90;;;;;;5072764;28;20036;-74
2023/09/09 00:43:53;;;;;;;17.50;15.73;;;22.40;99.90;;;;;;5076152;28;20069;-75
2023/09/09 00:46:19;;;;;;;16.70;14.85;;;22.40;99.90;;;;;;5072581;28;20036;-75
2023/09/09 00:48:45;;;;;;;18.40;15.00;;;22.40;99.90;;;;;;5071782;28;20036;-74
2023/09/09 00:51:12;;;;;;;21.05;16.23;;;22.40;99.90;;;;;;5070291;28;20033;-74
2023/09/09 00:53:40;;;;;;;18.10;16.25;;;22.30;99.90;;;;;;5071337;28;20025;-74
2023/09/09 00:56:06;;;;;;;18.98;17.13;;;22.30;99.90;;;;;;5065827;28;20151;-74
2023/09/09 00:58:32;;;;;;;19.38;16.67;;;22.30;99.90;;;;;;5075599;28;20147;-75
2023/09/09 01:01:03;;;;;;;17.95;15.98;;;22.30;99.90;;;;;;5075881;28;20099;-75
2023/09/09 01:03:30;;;;;;;17.42;14.43;;;22.30;99.90;;;;;;5065059;28;20027;-74
2023/09/09 01:05:56;;;;;;;17.13;14.05;;;22.30;99.90;;;;;;5078589;28;20021;-74
2023/09/09 01:08:29;;;;;;;16.52;14.80;;;22.20;99.90;;;;;;5070520;28;20098;-75
2023/09/09 01:10:55;;;;;;;17.17;13.85;;;22.30;99.90;;;;;;5077983;28;20064;-74
2023/09/09 01:13:22;;;;;;;16.13;14.43;;;22.20;99.90;;;;;;5082104;28;20067;-74
2023/09/09 01:15:48;;;;;;;16.67;14.95;;;22.10;99.90;;;;;;5070976;28;20016;-74
2023/09/09 01:18:14;;;;;;;18.60;16.75;;;22.10;99.90;;;;;;5075256;28;20365;-74
2023/09/09 01:20:45;;;;;;;19.77;16.05;;;22.10;99.90;;;;;;5065314;28;20024;-75
2023/09/09 01:23:10;;;;;;;17.27;15.48;;;22.10;99.90;;;;;;5060858;28;20025;-75
2023/09/09 01:25:36;;;;;;;15.93;14.35;;;22.10;99.90;;;;;;5068745;28;20051;-74
2023/09/09 01:28:02;;;;;;;18.83;16.10;;;22.10;99.90;;;;;;5077785;28;20017;-74
2023/09/09 01:30:27;;;;;;;18.33;16.52;;;22.10;99.90;;;;;;5074146;28;20028;-74
2023/09/09 01:32:53;;;;;;;18.65;15.65;;;22.10;99.90;;;;;;5072232;28;20033;-74
2023/09/09 01:35:19;;;;;;;16.42;14.73;;;22.00;99.90;;;;;;5078341;28;20028;-73
2023/09/09 01:37:45;;;;;;;21.13;17.67;;;22.00;99.90;;;;;;5077707;28;20532;-75
2023/09/09 01:40:12;;;;;;;22.67;20.00;;;22.00;99.90;;;;;;5067775;28;20094;-73
2023/09/09 01:42:40;;;;;;;30.00;25.95;;;22.00;99.90;;;;;;5074402;28;20019;-74
2023/09/09 01:45:06;;;;;;;29.60;26.38;;;22.00;99.90;;;;;;5067157;28;20028;-75
2023/09/09 01:47:32;;;;;;;24.77;21.95;;;21.90;99.90;;;;;;5077361;28;20358;-74
2023/09/09 01:49:57;;;;;;;26.83;23.92;;;21.90;99.90;;;;;;5071722;28;20023;-75
2023/09/09 01:52:23;;;;;;;30.98;26.13;;;21.90;99.90;;;;;;5077569;28;20381;-75
2023/09/09 01:54:49;;;;;;;28.42;25.45;;;21.90;99.90;;;;;;5068412;28;20086;-75
2023/09/09 01:57:16;;;;;;;30.08;24.30;;;21.90;99.90;;;;;;5072926;28;20025;-74
2023/09/09 01:59:43;;;;;;;31.33;26.65;;;21.90;99.90;;;;;;5080327;28;20036;-74
2023/09/09 02:02:09;;;;;;;29.23;26.23;;;21.80;99.90;;;;;;5073537;28;20103;-74
2023/09/09 02:04:34;;;;;;;30.23;27.10;;;21.80;99.90;;;;;;5072242;28;20440;-75
2023/09/09 02:07:00;;;;;;;33.78;28.75;;;21.80;99.90;;;;;;5070626;28;20039;-74
2023/09/09 02:09:26;;;;;;;39.25;33.47;;;21.80;99.90;;;;;;5076884;28;20036;-75
2023/09/09 02:11:51;;;;;;;37.33;31.80;;;21.80;99.90;;;;;;5073945;28;20380;-75
2023/09/09 02:14:17;;;;;;;32.85;28.75;;;21.80;99.90;;;;;;5074427;28;20106;-74
2023/09/09 02:16:43;;;;;;;32.63;29.25;;;21.80;99.90;;;;;;5067183;28;20079;-74
2023/09/09 02:19:09;;;;;;;35.65;27.40;;;21.70;99.90;;;;;;5070129;28;20032;-74
2023/09/09 02:21:34;;;;;;;32.33;28.77;;;21.70;99.90;;;;;;5080072;28;20030;-74
2023/09/09 02:24:00;;;;;;;35.67;31.90;;;21.70;99.90;;;;;;5080853;28;20512;-75
2023/09/09 02:26:26;;;;;;;30.30;27.05;;;21.70;99.90;;;;;;5084018;28;20533;-74
2023/09/09 02:28:53;;;;;;;43.95;34.83;;;21.60;99.90;;;;;;5070567;28;20028;-74
2023/09/09 02:31:19;;;;;;;41.65;36.95;;;21.60;99.90;;;;;;5076133;28;20495;-74
2023/09/09 02:33:44;;;;;;;44.75;37.63;;;21.60;99.90;;;;;;5082105;28;20036;-74
2023/09/09 02:36:10;;;;;;;46.08;35.50;;;21.60;99.90;;;;;;5073104;28;20026;-74
2023/09/09 02:38:36;;;;;;;39.85;33.13;;;21.60;99.90;;;;;;5081749;28;20027;-74
2023/09/09 02:41:02;;;;;;;39.78;32.13;;;21.60;99.90;;;;;;5076518;28;20448;-73
2023/09/09 02:43:27;;;;;;;34.67;30.33;;;21.50;99.90;;;;;;5084033;28;20034;-74
2023/09/09 02:45:53;;;;;;;29.77;23.25;;;21.50;99.90;;;;;;5077317;28;20044;-75
2023/09/09 02:48:19;;;;;;;22.95;20.05;;;21.50;99.90;;;;;;5073844;28;20481;-74
2023/09/09 02:50:45;;;;;;;28.60;25.50;;;21.50;99.90;;;;;;5079547;28;20056;-74
2023/09/09 02:53:10;;;;;;;29.10;25.50;;;21.50;99.90;;;;;;5070943;28;20048;-75
2023/09/09 02:55:36;;;;;;;26.40;23.55;;;21.50;99.90;;;;;;5081770;28;20020;-74
2023/09/09 02:58:02;;;;;;;28.70;24.02;;;21.50;99.90;;;;;;5073286;28;20876;-74
2023/09/09 03:00:28;;;;;;;26.40;22.73;;;21.50;99.90;;;;;;5077120;28;20031;-74
2023/09/09 03:02:53;;;;;;;27.35;23.92;;;21.40;99.90;;;;;;5076585;28;20389;-73
2023/09/09 03:05:19;;;;;;;31.90;24.05;;;21.40;99.90;;;;;;5075563;28;20025;-74
2023/09/09 03:07:48;;;;;;;32.53;29.02;;;21.40;99.90;;;;;;5072748;28;20478;-74
2023/09/09 03:10:15;;;;;;;39.42;33.47;;;21.40;99.90;;;;;;5070273;28;20036;-76
2023/09/09 03:12:40;;;;;;;41.13;32.50;;;21.30;99.90;;;;;;5070931;28;20039;-76
2023/09/09 03:15:06;;;;;;;41.20;34.92;;;21.30;99.90;;;;;;5063054;28;20021;-76
2023/09/09 03:17:32;;;;;;;39.88;35.45;;;21.30;99.90;;;;;;5077021;28;20016;-76
2023/09/09 03:19:58;;;;;;;40.95;34.28;;;21.30;99.90;;;;;;5072758;28;20491;-76
2023/09/09 03:22:23;;;;;;;38.45;32.88;;;21.30;99.90;;;;;;5078295;28;20487;-76
2023/09/09 03:24:49;;;;;;;38.67;34.13;;;21.30;99.90;;;;;;5074248;28;20082;-76
2023/09/09 03:27:15;;;;;;;42.42;36.05;;;21.30;99.90;;;;;;5072977;28;20560;-76
2023/09/09 03:29:40;;;;;;;40.60;36.20;;;21.30;99.90;;;;;;5068469;28;20053;-75
2023/09/09 03:32:06;;;;;;;45.40;38.35;;;21.20;99.90;;;;;;5080115;28;20029;-75
2023/09/09 03:34:32;;;;;;;40.95;36.08;;;21.20;99.90;;;;;;5076933;28;20063;-75
2023/09/09 03:36:57;;;;;;;41.40;36.53;;;21.20;99.90;;;;;;5077527;28;20013;-75
2023/09/09 03:39:23;;;;;;;43.83;35.22;;;21.20;99.90;;;;;;5078689;28;20251;-76
2023/09/09 03:41:49;;;;;;;38.80;33.60;;;21.20;99.90;;;;;;5074122;28;20024;-75
2023/09/09 03:44:14;;;;;;;42.15;36.38;;;21.10;99.90;;;;;;5075973;28;20458;-75
2023/09/09 03:46:40;;;;;;;45.40;39.33;;;21.10;99.90;;;;;;5076009;28;20032;-75
2023/09/09 03:49:06;;;;;;;42.65;37.65;;;21.10;99.90;;;;;;5075508;28;20081;-75
2023/09/09 03:51:32;;;;;;;47.60;41.92;;;21.10;99.90;;;;;;5080098;28;20027;-75
2023/09/09 03:53:57;;;;;;;46.58;40.92;;;21.10;99.90;;;;;;5067354;28;20033;-76
2023/09/09 03:56:23;;;;;;;47.70;40.47;;;21.10;99.90;;;;;;5076372;28;20013;-75
2023/09/09 03:58:49;;;;;;;45.42;37.90;;;21.00;99.90;;;;;;5080851;28;20071;-75
2023/09/09 04:01:14;;;;;;;46.78;36.40;;;21.10;99.90;;;;;;5074837;28;20408;-76
2023/09/09 04:03:40;;;;;;;38.58;32.92;;;21.00;99.90;;;;;;5079447;28;20538;-76
2023/09/09 04:06:12;;;;;;;38.03;34.03;;;21.00;99.90;;;;;;5070108;28;20024;-76
2023/09/09 04:08:39;;;;;;;37.75;33.80;;;21.00;99.90;;;;;;5070213;28;20041;-76
2023/09/09 04:11:06;;;;;;;35.15;31.27;;;21.00;99.90;;;;;;5078030;28;20028;-76
2023/09/09 04:13:32;;;;;;;35.67;31.80;;;21.00;99.90;;;;;;5077327;28;20054;-76
2023/09/09 04:15:59;;;;;;;40.95;32.03;;;21.00;99.90;;;;;;5075441;28;20104;-76
2023/09/09 04:18:26;;;;;;;35.58;31.83;;;20.90;99.90;;;;;;5079520;28;20032;-76
2023/09/09 04:20:52;;;;;;;40.92;34.03;;;20.90;99.90;;;;;;5074433;28;20025;-76
2023/09/09 04:23:18;;;;;;;44.40;36.67;;;20.90;99.90;;;;;;5073918;28;20426;-76
2023/09/09 04:25:47;;;;;;;42.30;35.17;;;20.90;99.90;;;;;;5081307;28;20024;-72
2023/09/09 04:28:13;;;;;;;39.78;32.35;;;20.90;99.90;;;;;;5068753;28;20065;-76
2023/09/09 04:30:40;;;;;;;37.08;32.60;;;20.80;99.90;;;;;;5076274;28;20047;-75
2023/09/09 04:33:07;;;;;;;42.90;37.10;;;20.80;99.90;;;;;;5082500;28;20025;-76
2023/09/09 04:35:33;;;;;;;44.67;37.67;;;20.80;99.90;;;;;;5077144;28;20358;-76
2023/09/09 04:37:59;;;;;;;48.38;40.95;;;20.80;99.90;;;;;;5072781;28;20024;-76
2023/09/09 04:40:25;;;;;;;50.45;39.15;;;20.80;99.90;;;;;;5073327;28;20025;-76
2023/09/09 04:42:51;;;;;;;51.63;43.83;;;20.80;99.90;;;;;;5077424;28;20024;-76
2023/09/09 04:45:17;;;;;;;47.40;40.85;;;20.80;99.90;;;;;;5065409;28;20025;-76
2023/09/09 04:47:43;;;;;;;46.63;37.17;;;20.70;99.90;;;;;;5072184;28;20534;-76
2023/09/09 04:50:09;;;;;;;42.58;35.50;;;20.70;99.90;;;;;;5075852;28;20017;-76
2023/09/09 04:52:34;;;;;;;50.45;38.28;;;20.70;99.90;;;;;;5068982;28;20090;-76
2023/09/09 04:55:00;;;;;;;33.05;28.88;;;20.70;99.90;;;;;;5078706;28;20024;-76
2023/09/09 04:57:25;;;;;;;36.60;29.67;;;20.70;99.90;;;;;;5081140;28;20523;-76
2023/09/09 04:59:51;;;;;;;34.58;30.88;;;20.70;99.90;;;;;;5071235;28;20025;-76
2023/09/09 05:02:17;;;;;;;35.10;30.23;;;20.60;99.90;;;;;;5084103;28;20024;-77
2023/09/09 05:04:42;;;;;;;35.35;31.70;;;20.60;99.90;;;;;;5071582;28;20461;-74
2023/09/09 05:07:09;;;;;;;32.35;28.90;;;20.60;99.90;;;;;;5066410;28;20117;-77
2023/09/09 05:09:35;;;;;;;40.45;35.30;;;20.60;99.90;;;;;;5072813;28;20038;-77
2023/09/09 05:12:01;;;;;;;44.15;37.88;;;20.60;99.90;;;;;;5077460;28;20021;-75
2023/09/09 05:14:27;;;;;;;47.22;38.70;;;20.60;99.90;;;;;;5075760;28;20427;-78
2023/09/09 05:16:52;;;;;;;47.45;38.65;;;20.60;99.90;;;;;;5067655;28;20016;-75
2023/09/09 05:19:18;;;;;;;48.08;42.35;;;20.60;99.90;;;;;;5075645;28;20032;-76
2023/09/09 05:21:44;;;;;;;51.90;40.85;;;20.60;99.90;;;;;;5074260;28;20644;-75
2023/09/09 05:24:09;;;;;;;46.38;40.58;;;20.50;99.90;;;;;;5073977;28;20108;-76
2023/09/09 05:26:35;;;;;;;52.83;42.25;;;20.60;99.90;;;;;;5080649;28;20028;-74
2023/09/09 05:29:02;;;;;;;56.78;46.78;;;20.50;99.90;;;;;;5071805;28;20385;-73
2023/09/09 05:31:27;;;;;;;66.93;52.80;;;20.50;99.90;;;;;;5075305;28;20032;-74
2023/09/09 05:33:53;;;;;;;66.95;53.45;;;20.50;99.90;;;;;;5079654;28;20040;-74
2023/09/09 05:36:19;;;;;;;67.72;53.53;;;20.50;99.90;;;;;;5068194;28;20024;-74
2023/09/09 05:38:44;;;;;;;55.00;45.88;;;20.50;99.90;;;;;;5074927;28;20032;-73
2023/09/09 05:41:10;;;;;;;50.22;40.35;;;20.60;99.90;;;;;;5071907;28;20044;-73
2023/09/09 05:43:36;;;;;;;33.58;27.38;;;20.60;99.90;;;;;;5074753;28;20016;-74
2023/09/09 05:46:01;;;;;;;34.03;28.35;;;20.50;99.90;;;;;;5076599;28;20523;-74
2023/09/09 05:48:27;;;;;;;32.33;28.52;;;20.50;99.90;;;;;;5077614;28;20024;-75
2023/09/09 05:50:55;;;;;;;32.05;28.25;;;20.50;99.90;;;;;;5066479;28;20496;-72
2023/09/09 05:53:21;;;;;;;36.95;29.08;;;20.60;99.90;;;;;;5071743;28;20038;-74
2023/09/09 05:55:47;;;;;;;36.08;32.10;;;20.50;99.90;;;;;;5077197;28;20095;-73
2023/09/09 05:58:13;;;;;;;38.35;33.67;;;20.50;99.90;;;;;;5066906;28;20111;-73
2023/09/09 06:00:38;;;;;;;42.42;37.03;;;20.50;99.90;;;;;;5069932;28;20091;-73
2023/09/09 06:03:04;;;;;;;43.70;38.90;;;20.50;99.90;;;;;;5078624;28;20024;-73
2023/09/09 06:05:30;;;;;;;50.67;42.30;;;20.50;99.90;;;;;;5070829;28;20092;-73
2023/09/09 06:07:57;;;;;;;50.33;43.47;;;20.50;99.90;;;;;;5076824;28;20059;-73
2023/09/09 06:10:22;;;;;;;60.15;49.75;;;20.60;99.90;;;;;;5073745;28;20075;-73
2023/09/09 06:12:49;;;;;;;48.47;39.78;;;20.60;99.90;;;;;;5066938;28;20052;-73
2023/09/09 06:15:14;;;;;;;52.28;43.75;;;20.60;99.90;;;;;;5072722;28;20040;-73
2023/09/09 06:17:41;;;;;;;58.13;49.25;;;20.60;99.90;;;;;;5064169;28;20036;-73
2023/09/09 06:20:07;;;;;;;62.33;53.08;;;20.60;99.90;;;;;;5069768;28;20016;-73
2023/09/09 06:22:34;;;;;;;78.07;61.88;;;20.60;99.90;;;;;;5076420;28;20048;-74
2023/09/09 06:25:01;;;;;;;71.15;56.92;;;20.60;99.90;;;;;;5072392;28;20028;-73
2023/09/09 06:27:26;;;;;;;80.65;63.50;;;20.60;99.90;;;;;;5066357;28;20111;-73
2023/09/09 06:29:52;;;;;;;82.45;68.30;;;20.60;99.90;;;;;;5070972;28;20609;-73
2023/09/09 06:32:18;;;;;;;75.95;62.47;;;20.70;99.90;;;;;;5074654;28;20029;-73
2023/09/09 06:34:43;;;;;;;83.00;65.90;;;20.70;99.90;;;;;;5074403;28;20082;-72
2023/09/09 06:37:10;;;;;;;83.65;67.68;;;20.70;99.90;;;;;;5067552;28;20385;-73
2023/09/09 06:39:36;;;;;;;65.10;52.35;;;20.70;99.90;;;;;;5075422;28;20025;-73
2023/09/09 06:42:02;;;;;;;85.07;67.88;;;20.80;99.90;;;;;;5073193;28;20028;-74
2023/09/09 06:44:27;;;;;;;100.75;76.75;;;20.70;99.90;;;;;;5066384;28;20031;-73
2023/09/09 06:46:53;;;;;;;107.18;82.97;;;20.70;99.90;;;;;;5070072;28;20478;-73
2023/09/09 06:49:19;;;;;;;109.20;84.63;;;20.80;99.90;;;;;;5065249;28;20062;-73
2023/09/09 06:51:45;;;;;;;111.85;86.20;;;20.80;99.90;;;;;;5069817;28;20404;-73
2023/09/09 06:54:10;;;;;;;113.13;86.82;;;20.80;99.90;;;;;;5069148;28;20615;-73
2023/09/09 06:56:36;;;;;;;100.22;79.13;;;20.90;99.90;;;;;;5070350;28;20029;-73
2023/09/09 06:59:03;;;;;;;70.18;56.33;;;20.90;99.90;;;;;;5064461;28;20025;-72
2023/09/09 07:01:29;;;;;;;69.78;53.17;;;21.00;99.90;;;;;;5073137;28;20017;-73
2023/09/09 07:03:55;;;;;;;72.75;58.08;;;21.00;99.90;;;;;;5067748;28;20043;-74
2023/09/09 07:06:22;;;;;;;67.60;51.85;;;21.00;99.90;;;;;;5073010;28;20020;-75
2023/09/09 07:08:48;;;;;;;59.38;48.45;;;21.00;99.90;;;;;;5073752;28;20832;-74
2023/09/09 07:11:13;;;;;;;62.08;49.53;;;21.00;99.90;;;;;;5079111;28;20016;-73
2023/09/09 07:13:39;;;;;;;67.18;54.03;;;21.10;99.90;;;;;;5072231;28;20040;-73
2023/09/09 07:16:05;;;;;;;91.05;69.80;;;21.10;99.90;;;;;;5076261;28;20498;-72
2023/09/09 07:18:31;;;;;;;89.10;67.57;;;21.10;99.90;;;;;;5074198;28;20081;-73
2023/09/09 07:21:00;;;;;;;108.57;76.82;;;21.10;99.90;;;;;;5067184;28;20059;-73
2023/09/09 07:23:26;;;;;;;91.20;72.50;;;21.20;99.90;;;;;;5072923;28;20115;-72
2023/09/09 07:25:52;;;;;;;102.57;80.13;;;21.20;99.90;;;;;;5073116;28;20107;-75
2023/09/09 07:28:18;;;;;;;127.05;96.25;;;21.20;99.90;;;;;;5075940;28;20036;-75
2023/09/09 07:30:44;;;;;;;103.93;79.63;;;21.20;99.90;;;;;;5076272;28;20021;-78
2023/09/09 07:33:10;;;;;;;99.03;75.03;;;21.30;99.90;;;;;;5068021;28;20032;-77
2023/09/09 07:35:36;;;;;;;112.53;83.25;;;21.30;99.90;;;;;;5074568;28;20062;-77
2023/09/09 07:38:06;;;;;;;122.32;94.13;;;21.30;99.90;;;;;;5066972;28;20032;-75
2023/09/09 07:40:31;;;;;;;145.15;104.88;;;21.40;99.90;;;;;;5072456;28;20025;-75
2023/09/09 07:42:57;;;;;;;145.82;108.63;;;21.50;99.90;;;;;;5084429;28;20036;-75
2023/09/09 07:45:23;;;;;;;147.68;108.38;;;21.50;99.90;;;;;;5072234;28;20031;-76
2023/09/09 07:47:49;;;;;;;147.73;110.40;;;21.60;99.90;;;;;;5078432;28;20031;-76
2023/09/09 07:50:14;;;;;;;163.00;118.53;;;21.70;99.90;;;;;;5073396;28;20136;-75
2023/09/09 07:52:40;;;;;;;160.68;118.60;;;21.80;99.90;;;;;;5077842;28;20029;-75
2023/09/09 07:55:06;;;;;;;165.27;119.28;;;21.80;99.90;;;;;;5075432;28;20028;-75
2023/09/09 07:57:32;;;;;;;176.73;125.03;;;21.90;99.90;;;;;;5069405;28;20017;-77
2023/09/09 07:59:58;;;;;;;172.32;125.75;;;22.00;99.90;;;;;;5082236;28;20361;-75
2023/09/09 08:02:23;;;;;;;170.45;122.13;;;22.00;99.90;;;;;;5077067;28;20412;-76
2023/09/09 08:04:49;;;;;;;162.50;117.82;;;22.10;99.90;;;;;;5071209;28;20017;-75
2023/09/09 08:07:15;;;;;;;164.25;119.53;;;22.20;99.90;;;;;;5073861;28;20377;-76
2023/09/09 08:09:41;;;;;;;143.60;109.20;;;22.30;99.90;;;;;;5080790;28;20036;-75
2023/09/09 08:12:07;;;;;;;155.45;115.88;;;22.40;99.90;;;;;;5075813;28;20035;-75
2023/09/09 08:14:32;;;;;;;125.65;99.60;;;22.50;99.90;;;;;;5073752;28;20028;-76
2023/09/09 08:16:58;;;;;;;105.82;83.03;;;22.50;99.90;;;;;;5075384;28;20028;-76
2023/09/09 08:19:24;;;;;;;102.45;78.97;;;22.60;99.90;;;;;;5076119;28;20027;-76
2023/09/09 08:21:49;;;;;;;98.28;77.18;;;22.70;99.90;;;;;;5075091;28;20604;-76
2023/09/09 08:24:15;;;;;;;99.13;73.20;;;22.80;99.90;;;;;;5068819;28;20024;-76
2023/09/09 08:26:41;;;;;;;97.72;77.55;;;22.90;99.90;;;;;;5064998;28;20037;-75
2023/09/09 08:29:06;;;;;;;87.97;71.32;;;23.00;99.90;;;;;;5071890;28;20487;-77
2023/09/09 08:31:32;;;;;;;86.22;65.38;;;23.00;99.90;;;;;;5078495;28;20036;-76
2023/09/09 08:33:58;;;;;;;79.90;64.35;;;23.10;99.90;;;;;;5063563;28;20477;-75
2023/09/09 08:36:25;;;;;;;80.88;65.25;;;23.20;99.90;;;;;;5074126;28;20528;-76
2023/09/09 08:38:56;;;;;;;73.05;59.08;;;23.40;99.90;;;;;;5077012;28;20135;-75
2023/09/09 08:41:47;;;;;;;69.65;57.10;;;23.40;99.90;;;;;;5070451;28;20029;-77
2023/09/09 08:44:44;;;;;;;63.72;52.75;;;23.60;99.90;;;;;;5075552;28;20529;-76
2023/09/09 08:47:11;;;;;;;39.33;33.03;;;23.60;99.90;;;;;;5072334;28;20047;-77
2023/09/09 08:49:41;;;;;;;52.13;41.03;;;23.60;99.90;;;;;;5074106;28;20013;-77
2023/09/09 08:52:17;;;;;;;45.05;36.65;;;23.70;99.90;;;;;;5068947;28;20028;-77
2023/09/09 08:54:44;;;;;;;37.35;32.13;;;23.70;99.90;;;;;;5079612;28;20035;-77
2023/09/09 08:57:09;;;;;;;40.35;33.75;;;23.80;99.90;;;;;;5068042;28;20037;-77
2023/09/09 08:59:38;;;;;;;34.30;29.98;;;23.90;99.90;;;;;;5076001;28;20034;-77
2023/09/09 09:02:04;;;;;;;33.67;28.73;;;23.90;99.90;;;;;;5064869;28;20029;-77
2023/09/09 09:04:32;;;;;;;35.55;28.23;;;24.00;99.90;;;;;;5076816;28;20043;-75
2023/09/09 09:07:00;;;;;;;36.60;32.47;;;24.10;99.90;;;;;;5072179;28;20117;-76
2023/09/09 09:09:26;;;;;;;30.50;27.27;;;24.10;99.90;;;;;;5070326;28;20036;-75
2023/09/09 09:11:52;;;;;;;33.80;29.48;;;24.30;99.90;;;;;;5077503;28;20036;-78
2023/09/09 09:14:18;;;;;;;31.17;27.40;;;24.40;99.90;;;;;;5067277;28;20021;-76
2023/09/09 09:16:46;;;;;;;28.92;25.80;;;24.50;99.90;;;;;;5078709;28;20044;-76
2023/09/09 09:19:28;;;;;;;33.60;29.88;;;24.60;99.90;;;;;;5072778;28;20031;-76
2023/09/09 09:21:55;;;;;;;29.85;26.42;;;24.50;99.90;;;;;;5070900;28;20025;-75
2023/09/09 09:24:23;;;;;;;25.02;22.13;;;24.70;99.90;;;;;;5074249;28;20445;-76
2023/09/09 09:26:49;;;;;;;28.40;23.35;;;24.80;99.90;;;;;;5074718;28;20028;-75
2023/09/09 09:29:15;;;;;;;29.63;22.85;;;24.90;99.90;;;;;;5068739;28;20103;-76
2023/09/09 09:31:40;;;;;;;33.67;25.63;;;25.10;99.90;;;;;;5066700;28;20043;-75
2023/09/09 09:34:08;;;;;;;25.73;22.92;;;25.20;99.90;;;;;;5074077;28;20039;-75
2023/09/09 09:36:35;;;;;;;23.45;20.88;;;25.40;99.90;;;;;;5070011;28;20052;-75
2023/09/09 09:39:10;;;;;;;22.77;20.30;;;25.60;99.90;;;;;;5075545;28;20527;-74
2023/09/09 09:41:39;;;;;;;27.80;22.70;;;25.70;99.90;;;;;;5068857;28;20030;-75
2023/09/09 09:44:16;;;;;;;32.03;24.63;;;26.00;99.90;;;;;;5075486;28;20024;-74
2023/09/09 09:46:41;;;;;;;30.00;26.83;;;26.10;99.90;;;;;;5074878;28;20025;-74
2023/09/09 09:49:08;;;;;;;29.55;24.95;;;26.10;99.90;;;;;;5069862;28;20048;-73
2023/09/09 09:51:43;;;;;;;25.63;22.73;;;26.20;99.90;;;;;;5074673;28;20020;-73
2023/09/09 09:54:09;;;;;;;24.52;22.02;;;26.30;99.90;;;;;;5069903;28;20452;-75
2023/09/09 09:56:39;;;;;;;20.35;18.25;;;26.40;99.90;;;;;;5076026;28;20017;-74
2023/09/09 09:59:06;;;;;;;21.25;18.08;;;26.50;99.90;;;;;;5060713;28;20033;-74
2023/09/09 10:01:33;;;;;;;20.05;17.88;;;26.50;99.90;;;;;;5071795;28;20052;-75
2023/09/09 10:04:05;;;;;;;18.48;16.75;;;26.60;99.90;;;;;;5070280;28;20027;-75
2023/09/09 10:06:33;;;;;;;19.57;16.90;;;26.70;99.90;;;;;;5075780;28;20028;-75
2023/09/09 10:09:19;;;;;;;19.95;18.00;;;26.90;99.90;;;;;;5075492;28;20405;-75
2023/09/09 10:12:11;;;;;;;14.75;13.50;;;27.00;99.90;;;;;;5073500;28;20024;-74
2023/09/09 10:14:37;;;;;;;;;;;27.10;99.90;;;;;;5073946;28;20043;-75
2023/09/09 10:17:06;;;;;;;16.13;14.48;;;27.20;99.90;;;;;;5066072;28;20019;-74
2023/09/09 10:19:37;;;;;;;12.73;11.43;;;27.40;99.90;;;;;;5070109;28;20929;-72
2023/09/09 10:22:07;;;;;;;13.13;11.70;;;27.50;99.90;;;;;;5069684;28;20024;-76
2023/09/09 10:24:38;;;;;;;14.18;11.00;;;27.50;99.90;;;;;;5069685;28;20027;-75
2023/09/09 10:27:06;;;;;;;13.55;12.25;;;27.60;99.90;;;;;;5076689;28;20338;-73
2023/09/09 10:29:34;;;;;;;16.13;12.95;;;27.70;99.90;;;;;;5071584;28;20029;-76
2023/09/09 10:32:05;;;;;;;17.02;13.60;;;27.80;99.90;;;;;;5076335;28;20028;-77
2023/09/09 10:34:34;;;;;;;14.70;13.40;;;27.80;99.90;;;;;;5071114;28;20055;-75
2023/09/09 10:37:00;;;;;;;14.52;13.13;;;27.90;99.90;;;;;;5070650;28;20134;-75
2023/09/09 10:39:27;;;;;;;16.58;14.88;;;28.00;99.90;;;;;;5066919;28;20029;-73
2023/09/09 10:41:54;;;;;;;13.35;11.73;;;28.30;99.90;;;;;;5077226;28;20046;-74
2023/09/09 10:44:20;;;;;;;12.35;11.05;;;28.30;99.90;;;;;;5071672;28;20020;-73
2023/09/09 10:46:46;;;;;;;11.20;10.10;;;28.40;99.90;;;;;;5070035;28;20036;-74
2023/09/09 10:49:17;;;;;;;14.73;13.20;;;28.40;99.90;;;;;;5070879;28;20028;-74
2023/09/09 10:51:50;;;;;;;13.48;11.93;;;28.50;99.90;;;;;;5076852;28;20027;-74
2023/09/09 10:54:17;;;;;;;;;;;28.60;99.90;;;;;;5076863;28;20528;-73
2023/09/09 10:56:51;;;;;;;11.77;10.63;;;28.70;99.90;;;;;;5079164;28;19908;-74
2023/09/09 10:59:18;;;;;;;12.10;10.95;;;28.70;99.90;;;;;;5072329;28;20024;-73
2023/09/09 11:01:44;;;;;;;12.27;11.18;;;28.80;99.90;;;;;;5074975;28;20036;-73
2023/09/09 11:04:23;;;;;;;14.80;10.32;;;28.70;99.90;;;;;;5081668;28;20400;-73
2023/09/09 11:07:07;;;;;;;9.13;8.32;;;28.90;99.90;;;;;;5069969;28;20033;-73
2023/09/09 11:09:32;;;;;;;8.77;7.65;;;29.00;99.90;;;;;;5078757;28;20177;-74
2023/09/09 11:11:58;;;;;;;8.30;7.43;;;29.10;99.90;;;;;;5077235;28;20517;-75
2023/09/09 11:14:31;;;;;;;10.65;8.25;;;29.10;99.90;;;;;;5071164;28;20040;-74
2023/09/09 11:16:56;;;;;;;10.57;7.72;;;29.20;99.90;;;;;;5066127;28;20031;-74
2023/09/09 11:19:23;;;;;;;9.98;7.07;;;29.20;99.90;;;;;;5068590;28;20025;-75
2023/09/09 11:21:51;;;;;;;10.70;8.38;;;29.20;99.90;;;;;;5078644;28;20051;-74
2023/09/09 11:24:18;;;;;;;10.20;7.82;;;29.30;99.90;;;;;;5076144;28;20051;-74
2023/09/09 11:26:48;;;;;;;8.90;8.15;;;29.30;99.90;;;;;;5067731;28;20047;-74
2023/09/09 11:29:16;;;;;;;8.75;7.95;;;29.30;99.90;;;;;;5071438;28;20032;-74
2023/09/09 11:31:42;;;;;;;8.88;8.07;;;29.40;99.90;;;;;;5081559;28;20036;-74
2023/09/09 11:34:07;;;;;;;9.85;7.07;;;29.40;99.90;;;;;;5067364;28;20044;-74
2023/09/09 11:36:33;;;;;;;11.43;7.30;;;29.40;99.90;;;;;;5080459;28;20056;-75
2023/09/09 11:39:00;;;;;;;7.72;7.03;;;29.40;99.90;;;;;;5072533;28;20021;-77
2023/09/09 11:41:28;;;;;;;7.25;6.63;;;29.40;99.90;;;;;;5072984;28;20090;-75
2023/09/09 11:44:07;;;;;;;7.85;6.65;;;29.40;99.90;;;;;;5074956;28;20029;-77
2023/09/09 11:46:41;;;;;;;7.13;6.45;;;29.60;99.90;;;;;;5074309;28;20390;-77
2023/09/09 11:49:08;;;;;;;9.65;8.63;;;29.70;99.90;;;;;;5064219;28;20020;-77
2023/09/09 11:51:35;;;;;;;10.00;6.85;;;29.70;99.90;;;;;;5075587;28;20032;-74
2023/09/09 11:54:01;;;;;;;14.77;7.75;;;29.80;99.90;;;;;;5081471;28;20036;-77
2023/09/09 11:56:29;;;;;;;8.95;7.95;;;29.80;99.90;;;;;;5072926;28;20028;-77
2023/09/09 11:58:55;;;;;;;8.75;6.57;;;29.80;99.90;;;;;;5068934;28;20026;-77
2023/09/09 12:01:22;;;;;;;7.88;7.28;;;29.60;99.90;;;;;;5071729;28;20032;-77
2023/09/09 12:03:49;;;;;;;5.93;5.32;;;29.80;99.90;;;;;;5079191;28;20079;-77
2023/09/09 12:06:20;;;;;;;9.10;6.22;;;29.90;99.90;;;;;;5073917;28;20085;-77
2023/09/09 12:08:48;;;;;;;9.30;6.13;;;29.90;99.90;;;;;;5074555;28;20032;-77
2023/09/09 12:11:16;;;;;;;8.02;6.35;;;30.00;99.90;;;;;;5076908;28;20016;-78
2023/09/09 12:13:43;;;;;;;8.45;5.93;;;30.00;99.90;;;;;;5076079;28;20089;-76
2023/09/09 12:16:09;;;;;;;8.43;5.57;;;30.00;99.90;;;;;;5077454;28;20013;-77
2023/09/09 12:18:36;;;;;;;9.68;5.32;;;30.00;99.90;;;;;;5074589;28;20043;-77
2023/09/09 12:21:09;;;;;;;6.60;4.63;;;30.10;99.90;;;;;;5072052;28;20025;-77
2023/09/09 12:23:37;;;;;;;6.97;5.30;;;30.20;99.90;;;;;;5072369;28;20029;-78
2023/09/09 12:26:09;;;;;;;8.15;5.50;;;30.30;99.90;;;;;;5074288;28;20025;-76
2023/09/09 12:28:35;;;;;;;7.60;5.88;;;30.20;99.90;;;;;;5068474;28;20029;-77